createdAt,value
2018-02-24T00:00:30.806Z,6.73
2018-02-24T00:02:59.352Z,6.72
2018-02-24T00:05:27.865Z,6.71
2018-02-24T00:07:56.318Z,6.70
2018-02-24T00:10:24.781Z,6.69
2018-02-24T00:12:53.317Z,6.70
2018-02-24T00:15:21.782Z,6.50
2018-02-24T00:17:50.288Z,6.36
2018-02-24T00:20:18.774Z,6.29
2018-02-24T00:22:47.269Z,6.42
2018-02-24T00:25:15.769Z,6.02
2018-02-24T00:27:44.266Z,6.19
2018-02-24T00:30:12.716Z,6.10
2018-02-24T00:32:41.185Z,6.30
2018-02-24T00:35:09.699Z,6.21
2018-02-24T00:37:38.198Z,6.29
2018-02-24T00:40:06.683Z,6.02
2018-02-24T00:42:35.222Z,6.20
2018-02-24T00:45:03.681Z,6.14
2018-02-24T00:47:32.146Z,6.24
2018-02-24T00:50:00.663Z,6.28
2018-02-24T00:52:29.118Z,6.30
2018-02-24T00:54:57.654Z,6.30
2018-02-24T00:57:26.135Z,6.35
2018-02-24T00:59:54.626Z,6.32
2018-02-24T01:02:23.158Z,6.37
2018-02-24T01:04:51.704Z,6.36
2018-02-24T01:07:20.189Z,6.40
2018-02-24T01:09:48.730Z,6.38
2018-02-24T01:12:17.189Z,6.20
2018-02-24T01:14:45.717Z,6.38
2018-02-24T01:17:14.213Z,6.44
2018-02-24T01:19:42.742Z,6.44
2018-02-24T01:22:11.201Z,6.40
2018-02-24T01:24:39.706Z,6.45
2018-02-24T01:27:08.174Z,6.34
2018-02-24T01:29:36.646Z,6.33
2018-02-24T01:32:05.197Z,6.16
2018-02-24T01:34:33.717Z,6.33
2018-02-24T01:37:02.210Z,6.19
2018-02-24T01:39:30.703Z,6.21
2018-02-24T01:41:59.162Z,6.25
2018-02-24T01:44:27.688Z,6.31
2018-02-24T01:46:56.190Z,6.32
2018-02-24T01:49:24.675Z,6.28
2018-02-24T01:51:53.166Z,6.23
2018-02-24T01:54:21.643Z,6.15
2018-02-24T01:56:50.137Z,6.20
2018-02-24T01:59:18.585Z,6.26
2018-02-24T02:01:47.074Z,6.32
2018-02-24T02:04:15.555Z,6.26
2018-02-24T02:06:44.098Z,6.35
2018-02-24T02:09:12.574Z,6.43
2018-02-24T02:11:41.070Z,6.48
2018-02-24T02:14:09.562Z,6.38
2018-02-24T02:16:38.032Z,6.40
2018-02-24T02:19:06.500Z,6.10
2018-02-24T02:21:35.080Z,5.95
2018-02-24T02:24:03.598Z,6.09
2018-02-24T02:26:32.057Z,6.06
2018-02-24T02:29:00.550Z,5.92
2018-02-24T02:31:29.014Z,6.07
2018-02-24T02:33:57.538Z,5.98
2018-02-24T02:36:26.060Z,6.22
2018-02-24T02:38:54.558Z,6.23
2018-02-24T02:41:23.075Z,6.30
2018-02-24T02:43:51.570Z,5.96
2018-02-24T02:46:20.065Z,6.00
2018-02-24T02:48:48.526Z,6.15
2018-02-24T02:51:17.032Z,6.15
2018-02-24T02:53:45.507Z,6.22
2018-02-24T02:56:13.998Z,6.26
2018-02-24T02:58:42.505Z,6.32
2018-02-24T03:01:10.953Z,6.39
2018-02-24T03:03:39.458Z,6.36
2018-02-24T03:06:07.985Z,6.38
2018-02-24T03:08:36.442Z,6.38
2018-02-24T03:11:04.979Z,6.13
2018-02-24T03:13:33.483Z,6.09
2018-02-24T03:16:01.991Z,6.17
2018-02-24T03:18:30.465Z,6.32
2018-02-24T03:20:58.917Z,6.36
2018-02-24T03:23:27.405Z,6.30
2018-02-24T03:25:55.905Z,6.42
2018-02-24T03:28:24.394Z,6.41
2018-02-24T03:30:52.903Z,6.25
2018-02-24T03:33:21.421Z,6.31
2018-02-24T03:35:49.882Z,6.45
2018-02-24T03:38:18.382Z,6.47
2018-02-24T03:40:46.905Z,6.45
2018-02-24T03:43:15.357Z,6.52
2018-02-24T03:45:53.796Z,6.46
2018-02-24T03:48:22.258Z,6.52
2018-02-24T03:50:50.737Z,6.54
2018-02-24T03:53:19.200Z,6.61
2018-02-24T03:55:47.689Z,6.58
2018-02-24T03:58:16.187Z,6.57
2018-02-24T04:00:44.674Z,6.60
2018-02-24T04:03:13.228Z,6.63
2018-02-24T04:05:41.706Z,6.62
2018-02-24T04:08:10.157Z,6.54
2018-02-24T04:10:38.702Z,6.48
2018-02-24T04:13:07.216Z,6.54
2018-02-24T04:15:35.721Z,6.54
2018-02-24T04:18:04.268Z,6.39
2018-02-24T04:20:32.725Z,6.47
2018-02-24T04:23:01.214Z,6.46
2018-02-24T04:25:29.670Z,6.49
2018-02-24T04:27:58.164Z,6.45
2018-02-24T04:30:26.626Z,6.40
2018-02-24T04:32:55.122Z,6.28
2018-02-24T04:35:23.644Z,6.29
2018-02-24T04:37:52.102Z,6.31
2018-02-24T04:40:20.617Z,6.33
2018-02-24T04:42:49.114Z,6.34
2018-02-24T04:45:17.610Z,6.36
2018-02-24T04:47:46.100Z,6.33
2018-02-24T04:50:14.617Z,6.36
2018-02-24T04:52:43.115Z,6.31
2018-02-24T04:55:11.571Z,6.31
2018-02-24T04:57:40.065Z,6.34
2018-02-24T05:00:08.614Z,6.25
2018-02-24T05:02:37.153Z,6.25
2018-02-24T05:05:05.644Z,6.19
2018-02-24T05:07:34.154Z,6.29
2018-02-24T05:10:02.634Z,5.95
2018-02-24T05:12:31.108Z,6.13
2018-02-24T05:14:59.601Z,6.17
2018-02-24T05:17:28.111Z,6.28
2018-02-24T05:19:56.602Z,6.06
2018-02-24T05:22:25.106Z,6.24
2018-02-24T05:24:53.575Z,6.32
2018-02-24T05:27:22.103Z,6.34
2018-02-24T05:29:50.598Z,6.31
2018-02-24T05:32:19.069Z,6.40
2018-02-24T05:34:47.570Z,6.42
2018-02-24T05:37:16.080Z,6.29
2018-02-24T05:39:44.557Z,6.29
2018-02-24T05:42:13.045Z,6.36
2018-02-24T05:44:41.578Z,6.35
2018-02-24T05:47:10.050Z,6.41
2018-02-24T05:49:38.576Z,6.09
2018-02-24T05:52:07.101Z,6.18
2018-02-24T05:54:35.560Z,6.27
2018-02-24T05:57:04.070Z,6.30
2018-02-24T05:59:32.594Z,6.29
2018-02-24T06:02:01.087Z,6.35
2018-02-24T06:04:29.597Z,6.30
2018-02-24T06:06:58.079Z,6.38
2018-02-24T06:09:26.583Z,6.43
2018-02-24T06:11:55.078Z,6.38
2018-02-24T06:14:23.577Z,6.50
2018-02-24T06:16:52.041Z,6.53
2018-02-24T06:19:20.574Z,6.51
2018-02-24T06:21:49.046Z,6.55
2018-02-24T06:24:17.501Z,6.60
2018-02-24T06:26:46.027Z,6.58
2018-02-24T06:29:14.481Z,6.55
2018-02-24T06:31:42.939Z,6.63
2018-02-24T06:34:11.460Z,6.47
2018-02-24T06:36:39.982Z,6.49
2018-02-24T06:39:08.507Z,6.56
2018-02-24T06:41:37.011Z,6.65
2018-02-24T06:44:05.505Z,6.60
2018-02-24T06:46:33.966Z,6.69
2018-02-24T06:49:02.458Z,6.58
2018-02-24T06:51:30.990Z,6.71
2018-02-24T06:53:59.446Z,6.74
2018-02-24T06:56:27.953Z,6.68
2018-02-24T06:58:56.447Z,6.53
2018-02-24T07:01:24.952Z,6.52
2018-02-24T07:03:53.414Z,6.36
2018-02-24T07:06:21.914Z,6.31
2018-02-24T07:08:50.436Z,6.26
2018-02-24T07:11:18.918Z,6.44
2018-02-24T07:13:47.450Z,6.40
2018-02-24T07:16:15.914Z,6.42
2018-02-24T07:18:44.445Z,6.46
2018-02-24T07:21:12.913Z,6.46
2018-02-24T07:23:41.419Z,6.44
2018-02-24T07:26:09.894Z,6.44
2018-02-24T07:28:38.390Z,6.47
2018-02-24T07:31:06.882Z,6.53
2018-02-24T07:33:35.370Z,6.47
2018-02-24T07:36:03.862Z,6.50
2018-02-24T07:38:32.342Z,6.59
2018-02-24T07:41:00.842Z,6.67
2018-02-24T07:43:29.342Z,6.63
2018-02-24T07:45:57.802Z,6.57
2018-02-24T07:48:26.310Z,6.73
2018-02-24T07:50:54.766Z,6.78
2018-02-24T07:53:23.266Z,6.83
2018-02-24T07:55:51.722Z,6.80
2018-02-24T07:58:20.178Z,6.63
2018-02-24T08:00:48.673Z,6.77
2018-02-24T08:03:17.130Z,6.90
2018-02-24T08:05:45.635Z,6.92
2018-02-24T08:08:14.098Z,6.91
2018-02-24T08:10:42.599Z,6.91
2018-02-24T08:13:11.087Z,6.94
2018-02-24T08:15:39.544Z,6.98
2018-02-24T08:18:08.057Z,6.75
2018-02-24T08:20:36.528Z,6.99
2018-02-24T08:23:05.023Z,7.03
2018-02-24T08:25:33.494Z,7.02
2018-02-24T08:28:02.013Z,7.14
2018-02-24T08:30:30.518Z,7.22
2018-02-24T08:32:58.990Z,7.25
2018-02-24T08:35:27.446Z,7.28
2018-02-24T08:37:55.951Z,7.28
2018-02-24T08:40:24.511Z,7.22
2018-02-24T08:42:52.973Z,7.29
2018-02-24T08:45:21.466Z,7.40
2018-02-24T08:47:49.974Z,7.47
2018-02-24T08:50:18.450Z,7.41
2018-02-24T08:52:46.943Z,7.12
2018-02-24T08:55:15.445Z,7.22
2018-02-24T08:57:43.968Z,7.48
2018-02-24T09:00:12.430Z,7.54
2018-02-24T09:02:40.933Z,7.60
2018-02-24T09:05:09.404Z,7.68
2018-02-24T09:07:37.916Z,7.49
2018-02-24T09:10:06.425Z,7.67
2018-02-24T09:12:34.892Z,7.52
2018-02-24T09:15:03.403Z,7.71
2018-02-24T09:17:31.908Z,7.75
2018-02-24T09:20:00.369Z,7.78
2018-02-24T09:22:28.872Z,7.33
2018-02-24T09:24:57.336Z,7.76
2018-02-24T09:27:25.840Z,7.91
2018-02-24T09:29:54.298Z,7.72
2018-02-24T09:32:22.786Z,7.87
2018-02-24T09:34:51.287Z,8.03
2018-02-24T09:37:19.754Z,8.03
2018-02-24T09:39:48.249Z,8.19
2018-02-24T09:42:16.710Z,8.34
2018-02-24T09:44:45.183Z,8.42
2018-02-24T09:47:13.647Z,8.36
2018-02-24T09:49:42.137Z,8.31
2018-02-24T09:52:10.646Z,8.32
2018-02-24T09:54:39.109Z,8.23
2018-02-24T09:57:07.566Z,8.40
2018-02-24T09:59:36.058Z,8.49
2018-02-24T10:02:04.523Z,8.50
2018-02-24T10:04:33.034Z,8.38
2018-02-24T10:07:01.535Z,8.16
2018-02-24T10:09:30.023Z,8.35
2018-02-24T10:11:58.758Z,8.30
2018-02-24T10:14:27.253Z,8.48
2018-02-24T10:16:55.746Z,8.66
2018-02-24T10:19:24.212Z,8.62
2018-02-24T10:21:52.710Z,8.72
2018-02-24T10:24:21.166Z,8.68
2018-02-24T10:26:49.665Z,8.62
2018-02-24T10:29:18.136Z,8.68
2018-02-24T10:31:46.637Z,8.66
2018-02-24T10:34:15.122Z,8.73
2018-02-24T10:36:43.621Z,8.50
2018-02-24T10:39:12.109Z,8.40
2018-02-24T10:41:40.566Z,8.60
2018-02-24T10:44:09.062Z,8.48
2018-02-24T10:46:37.527Z,8.50
2018-02-24T10:49:15.660Z,7.86
2018-02-24T10:51:44.114Z,7.87
2018-02-24T10:54:12.620Z,8.26
2018-02-24T10:56:41.086Z,8.33
2018-02-24T10:59:09.582Z,8.29
2018-02-24T11:01:38.043Z,8.18
2018-02-24T11:04:06.567Z,8.43
2018-02-24T11:06:35.011Z,8.34
2018-02-24T11:09:03.536Z,8.24
2018-02-24T11:11:32.000Z,8.56
2018-02-24T11:14:00.497Z,8.57
2018-02-24T11:16:28.943Z,8.67
2018-02-24T11:18:57.430Z,8.84
2018-02-24T11:21:25.956Z,9.03
2018-02-24T11:23:54.427Z,9.19
2018-02-24T11:26:22.928Z,9.09
2018-02-24T11:28:51.422Z,9.33
2018-02-24T11:31:19.905Z,9.48
2018-02-24T11:33:48.359Z,9.61
2018-02-24T11:36:16.862Z,9.69
2018-02-24T11:38:45.321Z,9.82
2018-02-24T11:41:13.809Z,9.91
2018-02-24T11:43:42.334Z,9.92
2018-02-24T11:46:10.830Z,9.93
2018-02-24T11:48:39.321Z,9.96
2018-02-24T11:51:07.778Z,9.99
2018-02-24T11:53:36.305Z,9.84
2018-02-24T11:56:04.762Z,9.58
2018-02-24T11:58:33.245Z,9.84
2018-02-24T12:01:01.762Z,9.89
2018-02-24T12:03:30.246Z,9.93
2018-02-24T12:05:58.714Z,9.95
2018-02-24T12:08:27.206Z,9.95
2018-02-24T12:10:55.658Z,9.94
2018-02-24T12:13:24.222Z,9.65
2018-02-24T12:15:52.682Z,9.74
2018-02-24T12:18:21.178Z,9.70
2018-02-24T12:20:49.644Z,9.69
2018-02-24T12:23:18.125Z,9.59
2018-02-24T12:25:46.592Z,9.58
2018-02-24T12:28:15.126Z,9.52
2018-02-24T12:30:43.590Z,9.65
2018-02-24T12:33:12.089Z,9.43
2018-02-24T12:35:40.550Z,9.42
2018-02-24T12:38:09.057Z,9.40
2018-02-24T12:40:37.554Z,9.45
2018-02-24T12:43:06.054Z,9.65
2018-02-24T12:45:34.550Z,9.67
2018-02-24T12:48:03.051Z,9.63
2018-02-24T12:50:31.513Z,9.53
2018-02-24T12:53:00.025Z,9.16
2018-02-24T12:55:28.498Z,9.14
2018-02-24T12:57:56.959Z,9.17
2018-02-24T13:00:25.474Z,9.26
2018-02-24T13:02:53.973Z,9.43
2018-02-24T13:05:22.484Z,9.33
2018-02-24T13:07:50.942Z,9.17
2018-02-24T13:10:19.443Z,9.07
2018-02-24T13:12:47.902Z,9.29
2018-02-24T13:15:16.398Z,9.43
2018-02-24T13:17:44.890Z,8.83
2018-02-24T13:20:13.346Z,8.90
2018-02-24T13:22:41.839Z,8.66
2018-02-24T13:25:10.298Z,8.74
2018-02-24T13:27:38.795Z,8.81
2018-02-24T13:30:07.264Z,8.88
2018-02-24T13:32:35.758Z,8.99
2018-02-24T13:35:04.217Z,8.94
2018-02-24T13:37:32.741Z,8.80
2018-02-24T13:40:01.213Z,8.69
2018-02-24T13:42:29.719Z,8.64
2018-02-24T13:44:58.185Z,8.95
2018-02-24T13:47:26.706Z,8.96
2018-02-24T13:49:55.198Z,8.95
2018-02-24T13:52:23.692Z,9.08
2018-02-24T13:54:52.153Z,9.12
2018-02-24T13:57:20.660Z,8.90
2018-02-24T13:59:49.146Z,8.90
2018-02-24T14:02:17.606Z,8.97
2018-02-24T14:04:46.101Z,9.01
2018-02-24T14:07:14.557Z,9.04
2018-02-24T14:09:43.066Z,9.05
2018-02-24T14:12:11.566Z,8.90
2018-02-24T14:14:40.037Z,8.88
2018-02-24T14:17:08.559Z,8.63
2018-02-24T14:19:37.037Z,8.77
2018-02-24T14:22:05.490Z,8.94
2018-02-24T14:24:34.004Z,8.87
2018-02-24T14:27:02.506Z,8.91
2018-02-24T14:29:30.958Z,8.93
2018-02-24T14:31:59.415Z,8.56
2018-02-24T14:34:27.910Z,8.54
2018-02-24T14:36:56.410Z,8.71
2018-02-24T14:39:24.922Z,8.54
2018-02-24T14:41:53.375Z,8.60
2018-02-24T14:44:21.854Z,8.74
2018-02-24T14:46:50.343Z,8.71
2018-02-24T14:49:18.801Z,8.34
2018-02-24T14:51:47.289Z,8.38
2018-02-24T14:54:15.746Z,8.45
2018-02-24T14:56:44.257Z,8.58
2018-02-24T14:59:12.713Z,8.45
2018-02-24T15:01:41.166Z,8.46
2018-02-24T15:04:09.654Z,8.34
2018-02-24T15:06:38.182Z,8.43
2018-02-24T15:09:06.675Z,8.39
2018-02-24T15:11:35.292Z,8.32
2018-02-24T15:14:03.786Z,8.35
2018-02-24T15:16:32.289Z,8.44
2018-02-24T15:19:00.746Z,8.37
2018-02-24T15:21:29.261Z,8.46
2018-02-24T15:23:57.714Z,8.41
2018-02-24T15:26:26.215Z,8.46
2018-02-24T15:28:54.734Z,8.50
2018-02-24T15:31:23.198Z,8.41
2018-02-24T15:33:51.698Z,8.43
2018-02-24T15:36:20.230Z,8.38
2018-02-24T15:38:48.706Z,8.48
2018-02-24T15:41:17.206Z,8.51
2018-02-24T15:43:45.647Z,8.37
2018-02-24T15:46:14.122Z,8.42
2018-02-24T15:48:42.656Z,8.47
2018-02-24T15:51:11.110Z,8.45
2018-02-24T15:53:39.610Z,8.39
2018-02-24T15:56:08.098Z,8.14
2018-02-24T15:58:36.594Z,8.15
2018-02-24T16:01:05.088Z,8.28
2018-02-24T16:03:33.577Z,8.33
2018-02-24T16:06:02.069Z,8.29
2018-02-24T16:08:30.584Z,8.01
2018-02-24T16:10:59.086Z,8.18
2018-02-24T16:13:27.571Z,8.18
2018-02-24T16:15:56.075Z,8.28
2018-02-24T16:18:24.542Z,8.25
2018-02-24T16:20:53.052Z,8.26
2018-02-24T16:23:21.510Z,8.23
2018-02-24T16:25:49.970Z,8.08
2018-02-24T16:28:18.467Z,8.06
2018-02-24T16:30:46.951Z,8.03
2018-02-24T16:33:15.443Z,7.97
2018-02-24T16:35:43.902Z,7.91
2018-02-24T16:38:12.394Z,7.92
2018-02-24T16:40:40.891Z,7.67
2018-02-24T16:43:09.354Z,7.49
2018-02-24T16:45:37.868Z,7.50
2018-02-24T16:48:06.321Z,7.68
2018-02-24T16:50:35.409Z,7.75
2018-02-24T16:53:03.975Z,7.76
2018-02-24T16:55:32.417Z,7.70
2018-02-24T16:58:00.871Z,7.80
2018-02-24T17:00:29.420Z,7.82
2018-02-24T17:02:57.941Z,7.74
2018-02-24T17:05:26.410Z,7.76
2018-02-24T17:07:54.915Z,7.69
2018-02-24T17:10:23.391Z,7.76
2018-02-24T17:12:51.887Z,7.70
2018-02-24T17:15:20.348Z,7.70
2018-02-24T17:17:48.842Z,7.67
2018-02-24T17:20:17.313Z,7.66
2018-02-24T17:22:45.851Z,7.61
2018-02-24T17:25:14.346Z,7.59
2018-02-24T17:27:42.866Z,7.51
2018-02-24T17:30:11.326Z,7.51
2018-02-24T17:32:39.855Z,7.41
2018-02-24T17:35:08.345Z,7.45
2018-02-24T17:37:36.822Z,7.44
2018-02-24T17:40:05.331Z,7.33
2018-02-24T17:42:33.850Z,7.37
2018-02-24T17:45:02.321Z,7.26
2018-02-24T17:47:30.830Z,7.25
2018-02-24T17:49:59.306Z,7.23
2018-02-24T17:52:27.758Z,7.24
2018-02-24T17:54:56.278Z,7.21
2018-02-24T17:57:24.757Z,6.64
2018-02-24T17:59:53.214Z,6.84
2018-02-24T18:02:21.706Z,6.98
2018-02-24T18:04:50.211Z,6.97
2018-02-24T18:07:18.731Z,6.95
2018-02-24T18:09:47.191Z,6.94
2018-02-24T18:12:15.693Z,6.86
2018-02-24T18:14:44.180Z,6.96
2018-02-24T18:17:12.678Z,6.89
2018-02-24T18:19:41.188Z,6.88
2018-02-24T18:22:09.688Z,6.82
2018-02-24T18:24:38.150Z,6.78
2018-02-24T18:27:06.655Z,6.65
2018-02-24T18:29:35.146Z,6.77
2018-02-24T18:32:03.601Z,6.79
2018-02-24T18:34:32.095Z,6.78
2018-02-24T18:37:00.582Z,6.70
2018-02-24T18:39:29.073Z,6.77
2018-02-24T18:41:57.531Z,6.79
2018-02-24T18:44:26.083Z,6.83
2018-02-24T18:46:54.595Z,6.76
2018-02-24T18:49:23.068Z,6.78
2018-02-24T18:51:51.562Z,6.81
2018-02-24T18:54:20.058Z,6.84
2018-02-24T18:56:48.517Z,6.74
2018-02-24T18:59:16.970Z,6.73
2018-02-24T19:01:45.467Z,6.72
2018-02-24T19:04:13.986Z,6.75
2018-02-24T19:06:42.518Z,6.78
2018-02-24T19:09:10.974Z,6.74
2018-02-24T19:11:39.472Z,6.74
2018-02-24T19:14:07.953Z,6.71
2018-02-24T19:16:36.450Z,6.68
2018-02-24T19:19:04.941Z,6.70
2018-02-24T19:21:33.398Z,6.68
2018-02-24T19:24:01.898Z,6.74
2018-02-24T19:26:30.350Z,6.80
2018-02-24T19:28:58.814Z,6.68
2018-02-24T19:31:27.334Z,6.80
2018-02-24T19:33:55.826Z,6.66
2018-02-24T19:36:24.282Z,6.59
2018-02-24T19:38:52.783Z,6.75
2018-02-24T19:41:21.279Z,6.73
2018-02-24T19:43:49.746Z,6.73
2018-02-24T19:46:18.220Z,6.76
2018-02-24T19:48:46.714Z,6.77
2018-02-24T19:51:15.174Z,6.73
2018-02-24T19:53:43.666Z,6.75
2018-02-24T19:56:12.131Z,6.79
2018-02-24T19:58:40.636Z,6.67
2018-02-24T20:01:09.098Z,6.73
2018-02-24T20:03:37.585Z,6.75
2018-02-24T20:06:06.077Z,6.72
2018-02-24T20:08:34.584Z,6.73
2018-02-24T20:11:03.042Z,6.77
2018-02-24T20:13:31.534Z,6.64
2018-02-24T20:15:59.994Z,6.75
2018-02-24T20:18:28.480Z,6.80
2018-02-24T20:20:56.938Z,6.87
2018-02-24T20:23:25.432Z,6.79
2018-02-24T20:25:53.955Z,6.86
2018-02-24T20:28:22.419Z,6.80
2018-02-24T20:30:50.910Z,6.90
2018-02-24T20:33:19.376Z,6.91
2018-02-24T20:35:47.867Z,6.91
2018-02-24T20:38:16.334Z,6.91
2018-02-24T20:40:44.840Z,6.96
2018-02-24T20:43:13.306Z,6.98
2018-02-24T20:45:41.785Z,6.95
2018-02-24T20:48:10.314Z,6.94
2018-02-24T20:50:38.774Z,6.90
2018-02-24T20:53:07.270Z,6.91
2018-02-24T20:55:35.767Z,6.98
2018-02-24T20:58:05.018Z,6.95
2018-02-24T21:00:33.875Z,6.96
2018-02-24T21:03:02.369Z,6.98
2018-02-24T21:05:30.822Z,6.86
2018-02-24T21:07:59.299Z,6.95
2018-02-24T21:10:28.714Z,6.97
2018-02-24T21:12:57.166Z,6.92
2018-02-24T21:15:25.658Z,6.98
2018-02-24T21:17:54.158Z,7.02
2018-02-24T21:20:22.612Z,6.98
2018-02-24T21:22:51.121Z,6.87
2018-02-24T21:25:19.586Z,6.65
2018-02-24T21:27:48.054Z,6.53
2018-02-24T21:30:16.661Z,6.63
2018-02-24T21:32:45.122Z,6.64
2018-02-24T21:35:13.616Z,6.66
2018-02-24T21:37:42.128Z,6.72
2018-02-24T21:40:10.586Z,6.85
2018-02-24T21:42:39.080Z,6.83
2018-02-24T21:45:07.537Z,6.70
2018-02-24T21:47:36.040Z,6.74
2018-02-24T21:50:04.483Z,6.86
2018-02-24T21:52:32.970Z,6.84
2018-02-24T21:55:01.429Z,6.89
2018-02-24T21:57:29.958Z,6.84
2018-02-24T21:59:58.421Z,6.88
2018-02-24T22:02:26.914Z,6.91
2018-02-24T22:04:55.427Z,6.90
2018-02-24T22:07:24.543Z,6.89
2018-02-24T22:09:52.993Z,6.89
2018-02-24T22:12:21.481Z,6.93
2018-02-24T22:14:49.949Z,6.84
2018-02-24T22:17:18.442Z,6.93
2018-02-24T22:19:46.965Z,6.89
2018-02-24T22:22:15.468Z,6.92
2018-02-24T22:24:43.957Z,6.57
2018-02-24T22:27:12.450Z,6.44
2018-02-24T22:29:40.947Z,6.66
2018-02-24T22:32:09.439Z,6.41
2018-02-24T22:34:37.911Z,6.69
2018-02-24T22:37:06.402Z,6.46
2018-02-24T22:39:34.885Z,6.63
2018-02-24T22:42:03.438Z,6.67
2018-02-24T22:44:31.950Z,6.75
2018-02-24T22:47:00.412Z,6.63
2018-02-24T22:49:28.884Z,6.77
2018-02-24T22:51:57.378Z,6.83
2018-02-24T22:54:25.867Z,6.76
2018-02-24T22:56:54.324Z,6.50
2018-02-24T22:59:22.823Z,6.53
2018-02-24T23:01:51.314Z,6.75
2018-02-24T23:04:19.761Z,6.78
2018-02-24T23:06:48.222Z,6.81
2018-02-24T23:09:16.722Z,6.82
2018-02-24T23:11:45.190Z,6.86
2018-02-24T23:14:13.714Z,6.86
2018-02-24T23:16:42.166Z,6.86
2018-02-24T23:19:10.638Z,6.83
2018-02-24T23:21:39.098Z,6.82
2018-02-24T23:24:07.602Z,6.85
2018-02-24T23:26:36.066Z,6.86
2018-02-24T23:29:05.410Z,6.85
2018-02-24T23:31:33.958Z,6.82
2018-02-24T23:34:02.457Z,6.80
2018-02-24T23:36:30.953Z,6.80
2018-02-24T23:38:59.451Z,6.78
2018-02-24T23:41:27.915Z,6.67
2018-02-24T23:43:56.432Z,6.72
2018-02-24T23:46:24.897Z,6.74
2018-02-24T23:48:53.352Z,6.60
2018-02-24T23:51:21.886Z,6.66
2018-02-24T23:53:50.357Z,6.68
2018-02-24T23:56:18.857Z,6.68
2018-02-24T23:58:47.352Z,6.70
